sensor_id;sensor_type;location;lat;lon;timestamp;P1;durP1;ratioP1;P2;durP2;ratioP2
21731;SDS011;11028;51.156;17.130;2023-04-03T00:12:24;12.35;;;2.83;;
21731;SDS011;11028;51.156;17.130;2023-04-03T00:19:43;6.57;;;2.33;;
21731;SDS011;11028;51.156;17.130;2023-04-03T00:27:01;9.50;;;3.15;;
21731;SDS011;11028;51.156;17.130;2023-04-03T00:34:21;8.25;;;2.95;;
21731;SDS011;11028;51.156;17.130;2023-04-03T00:41:39;7.15;;;2.58;;
21731;SDS011;11028;51.156;17.130;2023-04-03T00:48:57;10.10;;;3.35;;
21731;SDS011;11028;51.156;17.130;2023-04-03T00:56:18;7.30;;;2.88;;
21731;SDS011;11028;51.156;17.130;2023-04-03T01:12:20;9.23;;;2.72;;
21731;SDS011;11028;51.156;17.130;2023-04-03T01:19:38;10.98;;;2.80;;
21731;SDS011;11028;51.156;17.130;2023-04-03T01:26:59;11.48;;;2.50;;
21731;SDS011;11028;51.156;17.130;2023-04-03T01:34:20;6.72;;;2.83;;
21731;SDS011;11028;51.156;17.130;2023-04-03T01:41:39;6.25;;;3.10;;
21731;SDS011;11028;51.156;17.130;2023-04-03T01:49:06;10.85;;;2.60;;
21731;SDS011;11028;51.156;17.130;2023-04-03T01:56:26;6.68;;;2.67;;
21731;SDS011;11028;51.156;17.130;2023-04-03T02:12:19;9.13;;;2.65;;
21731;SDS011;11028;51.156;17.130;2023-04-03T02:19:37;7.07;;;2.45;;
21731;SDS011;11028;51.156;17.130;2023-04-03T02:26:56;9.73;;;3.20;;
21731;SDS011;11028;51.156;17.130;2023-04-03T02:34:16;6.72;;;2.78;;
21731;SDS011;11028;51.156;17.130;2023-04-03T02:41:35;10.38;;;2.95;;
21731;SDS011;11028;51.156;17.130;2023-04-03T02:48:58;4.88;;;2.40;;
21731;SDS011;11028;51.156;17.130;2023-04-03T02:56:19;6.53;;;2.55;;
21731;SDS011;11028;51.156;17.130;2023-04-03T03:03:37;7.47;;;2.40;;
21731;SDS011;11028;51.156;17.130;2023-04-03T03:10:55;7.50;;;2.80;;
21731;SDS011;11028;51.156;17.130;2023-04-03T03:18:14;5.82;;;2.70;;
21731;SDS011;11028;51.156;17.130;2023-04-03T03:25:32;5.15;;;2.65;;
21731;SDS011;11028;51.156;17.130;2023-04-03T03:32:51;4.80;;;2.90;;
21731;SDS011;11028;51.156;17.130;2023-04-03T03:40:11;9.27;;;3.97;;
21731;SDS011;11028;51.156;17.130;2023-04-03T03:47:29;11.52;;;3.95;;
21731;SDS011;11028;51.156;17.130;2023-04-03T03:54:47;10.43;;;4.47;;
21731;SDS011;11028;51.156;17.130;2023-04-03T04:02:07;16.33;;;5.68;;
21731;SDS011;11028;51.156;17.130;2023-04-03T04:09:25;9.68;;;6.20;;
21731;SDS011;11028;51.156;17.130;2023-04-03T04:16:43;5.55;;;3.03;;
21731;SDS011;11028;51.156;17.130;2023-04-03T04:24:08;20.30;;;5.82;;
21731;SDS011;11028;51.156;17.130;2023-04-03T04:31:28;10.55;;;3.85;;
21731;SDS011;11028;51.156;17.130;2023-04-03T04:38:46;8.45;;;3.65;;
21731;SDS011;11028;51.156;17.130;2023-04-03T04:46:06;8.23;;;4.18;;
21731;SDS011;11028;51.156;17.130;2023-04-03T04:53:30;11.43;;;4.32;;
21731;SDS011;11028;51.156;17.130;2023-04-03T05:00:49;10.80;;;3.90;;
21731;SDS011;11028;51.156;17.130;2023-04-03T05:08:09;12.80;;;4.88;;
21731;SDS011;11028;51.156;17.130;2023-04-03T05:15:29;23.40;;;9.40;;
21731;SDS011;11028;51.156;17.130;2023-04-03T05:22:47;10.40;;;3.45;;
21731;SDS011;11028;51.156;17.130;2023-04-03T05:30:08;13.05;;;4.43;;
21731;SDS011;11028;51.156;17.130;2023-04-03T05:37:29;10.55;;;3.92;;
21731;SDS011;11028;51.156;17.130;2023-04-03T05:44:47;7.93;;;3.08;;
21731;SDS011;11028;51.156;17.130;2023-04-03T05:52:09;10.73;;;2.60;;
21731;SDS011;11028;51.156;17.130;2023-04-03T05:59:28;5.90;;;2.75;;
21731;SDS011;11028;51.156;17.130;2023-04-03T06:06:49;5.95;;;3.30;;
21731;SDS011;11028;51.156;17.130;2023-04-03T06:14:10;7.53;;;2.97;;
21731;SDS011;11028;51.156;17.130;2023-04-03T06:21:28;9.35;;;2.95;;
21731;SDS011;11028;51.156;17.130;2023-04-03T06:28:47;8.10;;;2.42;;
21731;SDS011;11028;51.156;17.130;2023-04-03T06:36:07;5.10;;;2.78;;
21731;SDS011;11028;51.156;17.130;2023-04-03T06:43:25;13.77;;;6.30;;
21731;SDS011;11028;51.156;17.130;2023-04-03T07:02:10;8.27;;;3.28;;
21731;SDS011;11028;51.156;17.130;2023-04-03T07:09:30;7.80;;;2.97;;
21731;SDS011;11028;51.156;17.130;2023-04-03T07:16:48;8.00;;;2.85;;
21731;SDS011;11028;51.156;17.130;2023-04-03T07:24:07;7.03;;;3.00;;
21731;SDS011;11028;51.156;17.130;2023-04-03T07:31:31;7.78;;;3.08;;
21731;SDS011;11028;51.156;17.130;2023-04-03T07:38:50;5.68;;;3.15;;
21731;SDS011;11028;51.156;17.130;2023-04-03T07:46:10;8.70;;;2.90;;
21731;SDS011;11028;51.156;17.130;2023-04-03T07:53:28;6.57;;;3.03;;
21731;SDS011;11028;51.156;17.130;2023-04-03T08:00:47;7.75;;;3.33;;
21731;SDS011;11028;51.156;17.130;2023-04-03T08:08:08;10.35;;;4.63;;
21731;SDS011;11028;51.156;17.130;2023-04-03T08:15:27;13.52;;;5.22;;
21731;SDS011;11028;51.156;17.130;2023-04-03T08:22:45;12.57;;;6.10;;
21731;SDS011;11028;51.156;17.130;2023-04-03T08:30:05;14.50;;;6.72;;
21731;SDS011;11028;51.156;17.130;2023-04-03T08:37:27;11.55;;;4.40;;
21731;SDS011;11028;51.156;17.130;2023-04-03T08:44:46;6.32;;;2.75;;
21731;SDS011;11028;51.156;17.130;2023-04-03T08:52:09;7.63;;;3.38;;
21731;SDS011;11028;51.156;17.130;2023-04-03T08:59:32;3.90;;;2.08;;
21731;SDS011;11028;51.156;17.130;2023-04-03T09:06:57;8.48;;;3.08;;
21731;SDS011;11028;51.156;17.130;2023-04-03T09:14:21;5.25;;;2.40;;
21731;SDS011;11028;51.156;17.130;2023-04-03T09:21:42;6.68;;;2.35;;
21731;SDS011;11028;51.156;17.130;2023-04-03T09:29:02;4.85;;;2.60;;
21731;SDS011;11028;51.156;17.130;2023-04-03T09:36:38;8.65;;;3.00;;
21731;SDS011;11028;51.156;17.130;2023-04-03T09:44:00;5.13;;;1.75;;
21731;SDS011;11028;51.156;17.130;2023-04-03T09:51:19;5.28;;;1.92;;
21731;SDS011;11028;51.156;17.130;2023-04-03T09:58:47;8.10;;;2.40;;
21731;SDS011;11028;51.156;17.130;2023-04-03T10:06:20;7.63;;;2.10;;
21731;SDS011;11028;51.156;17.130;2023-04-03T10:21:20;4.95;;;2.17;;
21731;SDS011;11028;51.156;17.130;2023-04-03T10:28:48;4.93;;;2.45;;
21731;SDS011;11028;51.156;17.130;2023-04-03T10:36:15;2.80;;;2.13;;
21731;SDS011;11028;51.156;17.130;2023-04-03T10:43:39;2.88;;;2.10;;
21731;SDS011;11028;51.156;17.130;2023-04-03T10:51:02;5.03;;;2.40;;
21731;SDS011;11028;51.156;17.130;2023-04-03T10:58:26;5.88;;;3.50;;
21731;SDS011;11028;51.156;17.130;2023-04-03T11:05:47;4.38;;;3.35;;
21731;SDS011;11028;51.156;17.130;2023-04-03T11:13:10;4.63;;;2.35;;
21731;SDS011;11028;51.156;17.130;2023-04-03T11:20:32;2.70;;;1.40;;
21731;SDS011;11028;51.156;17.130;2023-04-03T11:27:53;5.05;;;2.20;;
21731;SDS011;11028;51.156;17.130;2023-04-03T11:42:35;6.13;;;2.80;;
21731;SDS011;11028;51.156;17.130;2023-04-03T11:49:56;4.78;;;2.40;;
21731;SDS011;11028;51.156;17.130;2023-04-03T12:12:42;8.48;;;2.45;;
21731;SDS011;11028;51.156;17.130;2023-04-03T12:20:02;4.70;;;2.58;;
21731;SDS011;11028;51.156;17.130;2023-04-03T12:28:05;3.83;;;2.42;;
21731;SDS011;11028;51.156;17.130;2023-04-03T12:35:26;4.68;;;2.33;;
21731;SDS011;11028;51.156;17.130;2023-04-03T12:42:55;6.22;;;2.20;;
21731;SDS011;11028;51.156;17.130;2023-04-03T12:50:21;3.45;;;1.80;;
21731;SDS011;11028;51.156;17.130;2023-04-03T12:57:43;6.20;;;2.78;;
21731;SDS011;11028;51.156;17.130;2023-04-03T13:05:05;5.90;;;1.88;;
21731;SDS011;11028;51.156;17.130;2023-04-03T13:12:25;4.68;;;2.85;;
21731;SDS011;11028;51.156;17.130;2023-04-03T13:19:48;2.95;;;2.13;;
21731;SDS011;11028;51.156;17.130;2023-04-03T13:27:10;6.22;;;2.60;;
21731;SDS011;11028;51.156;17.130;2023-04-03T13:34:29;4.40;;;2.65;;
21731;SDS011;11028;51.156;17.130;2023-04-03T13:41:55;5.95;;;2.60;;
21731;SDS011;11028;51.156;17.130;2023-04-03T13:49:19;5.75;;;3.30;;
21731;SDS011;11028;51.156;17.130;2023-04-03T13:56:52;4.32;;;2.70;;
21731;SDS011;11028;51.156;17.130;2023-04-03T14:04:15;3.65;;;2.20;;
21731;SDS011;11028;51.156;17.130;2023-04-03T14:11:36;3.63;;;2.85;;
21731;SDS011;11028;51.156;17.130;2023-04-03T14:18:55;4.28;;;1.83;;
21731;SDS011;11028;51.156;17.130;2023-04-03T14:26:15;3.83;;;2.10;;
21731;SDS011;11028;51.156;17.130;2023-04-03T14:33:35;4.68;;;2.92;;
21731;SDS011;11028;51.156;17.130;2023-04-03T14:40:55;4.00;;;2.75;;
21731;SDS011;11028;51.156;17.130;2023-04-03T14:48:29;5.47;;;2.53;;
21731;SDS011;11028;51.156;17.130;2023-04-03T14:55:48;10.52;;;4.85;;
21731;SDS011;11028;51.156;17.130;2023-04-03T15:03:10;4.65;;;2.35;;
21731;SDS011;11028;51.156;17.130;2023-04-03T15:10:31;6.22;;;2.60;;
21731;SDS011;11028;51.156;17.130;2023-04-03T15:17:51;5.68;;;2.30;;
21731;SDS011;11028;51.156;17.130;2023-04-03T15:25:12;6.05;;;2.47;;
21731;SDS011;11028;51.156;17.130;2023-04-03T15:32:31;10.00;;;4.43;;
21731;SDS011;11028;51.156;17.130;2023-04-03T15:39:50;7.80;;;3.00;;
21731;SDS011;11028;51.156;17.130;2023-04-03T15:47:09;11.10;;;3.78;;
21731;SDS011;11028;51.156;17.130;2023-04-03T15:54:28;5.97;;;2.47;;
21731;SDS011;11028;51.156;17.130;2023-04-03T16:01:47;2.88;;;2.45;;
21731;SDS011;11028;51.156;17.130;2023-04-03T16:09:06;4.30;;;2.17;;
21731;SDS011;11028;51.156;17.130;2023-04-03T16:16:25;5.18;;;2.67;;
21731;SDS011;11028;51.156;17.130;2023-04-03T16:23:44;4.22;;;2.63;;
21731;SDS011;11028;51.156;17.130;2023-04-03T16:31:04;6.05;;;3.85;;
21731;SDS011;11028;51.156;17.130;2023-04-03T16:38:23;5.78;;;3.28;;
21731;SDS011;11028;51.156;17.130;2023-04-03T16:45:42;10.00;;;4.18;;
21731;SDS011;11028;51.156;17.130;2023-04-03T16:53:01;7.50;;;4.00;;
21731;SDS011;11028;51.156;17.130;2023-04-03T17:00:20;6.53;;;3.92;;
21731;SDS011;11028;51.156;17.130;2023-04-03T17:07:38;11.13;;;6.88;;
21731;SDS011;11028;51.156;17.130;2023-04-03T17:14:58;15.60;;;8.20;;
21731;SDS011;11028;51.156;17.130;2023-04-03T17:22:16;12.65;;;6.00;;
21731;SDS011;11028;51.156;17.130;2023-04-03T17:29:34;12.48;;;6.03;;
21731;SDS011;11028;51.156;17.130;2023-04-03T17:36:54;17.05;;;7.22;;
21731;SDS011;11028;51.156;17.130;2023-04-03T17:44:12;18.38;;;6.95;;
21731;SDS011;11028;51.156;17.130;2023-04-03T17:51:31;15.65;;;8.82;;
21731;SDS011;11028;51.156;17.130;2023-04-03T17:58:51;17.55;;;8.00;;
21731;SDS011;11028;51.156;17.130;2023-04-03T18:06:14;13.43;;;7.70;;
21731;SDS011;11028;51.156;17.130;2023-04-03T18:13:34;13.13;;;6.95;;
21731;SDS011;11028;51.156;17.130;2023-04-03T18:20:54;13.50;;;6.53;;
21731;SDS011;11028;51.156;17.130;2023-04-03T18:28:13;10.35;;;5.88;;
21731;SDS011;11028;51.156;17.130;2023-04-03T18:35:31;15.80;;;6.63;;
21731;SDS011;11028;51.156;17.130;2023-04-03T18:42:52;23.40;;;10.85;;
21731;SDS011;11028;51.156;17.130;2023-04-03T18:50:10;29.52;;;12.18;;
21731;SDS011;11028;51.156;17.130;2023-04-03T18:57:29;24.63;;;10.82;;
21731;SDS011;11028;51.156;17.130;2023-04-03T19:04:49;16.23;;;6.70;;
21731;SDS011;11028;51.156;17.130;2023-04-03T19:12:08;12.02;;;6.07;;
21731;SDS011;11028;51.156;17.130;2023-04-03T19:19:26;23.63;;;9.98;;
21731;SDS011;11028;51.156;17.130;2023-04-03T19:26:46;18.65;;;9.10;;
21731;SDS011;11028;51.156;17.130;2023-04-03T19:34:05;28.40;;;11.15;;
21731;SDS011;11028;51.156;17.130;2023-04-03T19:41:24;27.40;;;10.02;;
21731;SDS011;11028;51.156;17.130;2023-04-03T19:48:45;24.05;;;9.90;;
21731;SDS011;11028;51.156;17.130;2023-04-03T19:56:03;59.80;;;19.75;;
21731;SDS011;11028;51.156;17.130;2023-04-03T20:03:22;33.50;;;13.82;;
21731;SDS011;11028;51.156;17.130;2023-04-03T20:10:42;12.60;;;6.85;;
21731;SDS011;11028;51.156;17.130;2023-04-03T20:18:01;13.82;;;5.85;;
21731;SDS011;11028;51.156;17.130;2023-04-03T20:25:19;11.60;;;5.47;;
21731;SDS011;11028;51.156;17.130;2023-04-03T20:32:59;10.93;;;4.57;;
21731;SDS011;11028;51.156;17.130;2023-04-03T20:40:17;6.25;;;3.22;;
21731;SDS011;11028;51.156;17.130;2023-04-03T20:47:36;5.35;;;2.42;;
21731;SDS011;11028;51.156;17.130;2023-04-03T20:54:55;8.52;;;2.50;;
21731;SDS011;11028;51.156;17.130;2023-04-03T21:02:13;5.47;;;2.70;;
21731;SDS011;11028;51.156;17.130;2023-04-03T21:24:47;10.10;;;5.05;;
21731;SDS011;11028;51.156;17.130;2023-04-03T21:32:05;11.70;;;6.18;;
21731;SDS011;11028;51.156;17.130;2023-04-03T21:39:24;12.00;;;4.63;;
21731;SDS011;11028;51.156;17.130;2023-04-03T21:46:46;10.05;;;5.18;;
21731;SDS011;11028;51.156;17.130;2023-04-03T21:54:05;15.35;;;7.05;;
21731;SDS011;11028;51.156;17.130;2023-04-03T22:01:24;19.77;;;7.05;;
21731;SDS011;11028;51.156;17.130;2023-04-03T22:08:44;19.55;;;7.43;;
21731;SDS011;11028;51.156;17.130;2023-04-03T22:16:02;11.40;;;5.63;;
21731;SDS011;11028;51.156;17.130;2023-04-03T22:23:21;11.82;;;4.70;;
21731;SDS011;11028;51.156;17.130;2023-04-03T22:30:42;9.48;;;4.90;;
21731;SDS011;11028;51.156;17.130;2023-04-03T22:38:00;12.77;;;4.78;;
21731;SDS011;11028;51.156;17.130;2023-04-03T22:45:19;14.10;;;4.75;;
21731;SDS011;11028;51.156;17.130;2023-04-03T22:52:39;11.82;;;4.90;;
21731;SDS011;11028;51.156;17.130;2023-04-03T22:59:57;17.83;;;7.15;;
21731;SDS011;11028;51.156;17.130;2023-04-03T23:07:15;11.45;;;4.88;;
21731;SDS011;11028;51.156;17.130;2023-04-03T23:14:35;12.40;;;4.70;;
21731;SDS011;11028;51.156;17.130;2023-04-03T23:21:54;8.40;;;3.83;;
21731;SDS011;11028;51.156;17.130;2023-04-03T23:29:12;9.77;;;4.05;;
21731;SDS011;11028;51.156;17.130;2023-04-03T23:36:32;10.20;;;4.18;;
21731;SDS011;11028;51.156;17.130;2023-04-03T23:43:51;7.75;;;3.95;;
21731;SDS011;11028;51.156;17.130;2023-04-03T23:51:09;8.02;;;4.68;;
21731;SDS011;11028;51.156;17.130;2023-04-03T23:58:29;12.25;;;4.57;;
